createdAt,value
2022-09-05T00:05:03.273Z,12.80
2022-09-05T00:12:20.618Z,13.30
2022-09-05T00:24:20.081Z,15.10
2022-09-05T00:27:49.020Z,14.10
2022-09-05T00:35:08.126Z,12.80
2022-09-05T00:42:18.912Z,13.70
2022-09-05T00:50:00.524Z,13.70
2022-09-05T00:57:19.187Z,14.40
2022-09-05T01:04:51.694Z,14.10
2022-09-05T01:12:33.480Z,13.20
2022-09-05T01:20:19.118Z,12.50
2022-09-05T01:27:50.177Z,12.60
2022-09-05T01:35:35.057Z,10.60
2022-09-05T01:43:22.533Z,12.40
2022-09-05T01:50:57.964Z,9.90
2022-09-05T01:58:38.741Z,9.70
2022-09-05T02:06:30.025Z,9.60
2022-09-05T02:14:11.697Z,11.50
2022-09-05T02:21:55.775Z,12.00
2022-09-05T02:29:32.345Z,10.80
2022-09-05T02:37:11.720Z,11.50
2022-09-05T02:45:19.867Z,10.40
2022-09-05T02:57:29.696Z,9.00
2022-09-05T03:00:31.515Z,11.40
2022-09-05T03:08:10.496Z,11.00
2022-09-05T03:15:42.955Z,10.50
2022-09-05T03:23:23.420Z,9.40
2022-09-05T03:30:49.581Z,9.00
2022-09-05T03:38:11.965Z,14.10
2022-09-05T03:45:31.241Z,10.30
2022-09-05T03:57:08.730Z,12.60
2022-09-05T04:02:40.313Z,11.70
2022-09-05T04:08:52.533Z,11.80
2022-09-05T04:16:22.406Z,13.50
2022-09-05T04:23:43.228Z,14.30
2022-09-05T04:30:40.254Z,17.30
2022-09-05T04:37:52.018Z,17.20
2022-09-05T04:45:17.874Z,13.90
2022-09-05T04:52:57.107Z,20.40
2022-09-05T05:06:01.307Z,16.70
2022-09-05T05:08:04.060Z,21.20
2022-09-05T05:18:10.544Z,25.70
2022-09-05T05:23:07.324Z,24.30
2022-09-05T05:30:40.354Z,17.90
2022-09-05T05:38:13.427Z,16.40
2022-09-05T05:45:34.293Z,22.50
2022-09-05T05:53:06.868Z,22.80
2022-09-05T06:00:16.370Z,18.80
2022-09-05T06:09:33.768Z,21.10
2022-09-05T06:16:12.159Z,23.80
2022-09-05T06:23:46.894Z,21.70
2022-09-05T06:31:30.207Z,25.10
2022-09-05T06:38:59.055Z,21.10
2022-09-05T06:47:22.675Z,19.50
2022-09-05T06:54:26.680Z,19.00
2022-09-05T07:02:00.489Z,13.40
2022-09-05T07:09:22.276Z,15.50
2022-09-05T07:16:58.085Z,13.90
2022-09-05T07:24:54.358Z,10.50
2022-09-05T07:32:14.836Z,13.30
2022-09-05T07:39:29.549Z,10.30
2022-09-05T07:46:44.195Z,12.50
2022-09-05T07:56:52.572Z,14.80
2022-09-05T08:01:45.768Z,11.70
2022-09-05T08:10:05.280Z,12.70
2022-09-05T08:16:38.831Z,8.10
2022-09-05T08:24:13.224Z,8.20
2022-09-05T08:31:41.941Z,6.90
2022-09-05T08:39:02.291Z,7.80
2022-09-05T08:46:49.149Z,7.90
2022-09-05T08:54:28.722Z,6.10
2022-09-05T09:02:45.118Z,10.30
2022-09-05T09:09:53.420Z,8.30
2022-09-05T09:17:08.989Z,8.90
2022-09-05T09:25:14.412Z,6.40
2022-09-05T09:39:56.147Z,9.50
2022-09-05T09:47:37.888Z,9.50
2022-09-05T09:55:07.591Z,6.20
2022-09-05T10:08:17.923Z,9.70
2022-09-05T10:11:09.784Z,11.00
2022-09-05T10:18:34.768Z,5.80
2022-09-05T10:26:06.052Z,10.90
2022-09-05T10:35:16.922Z,8.80
2022-09-05T10:41:28.231Z,10.60
2022-09-05T10:49:16.619Z,4.00
2022-09-05T10:56:52.446Z,7.70
2022-09-05T11:03:33.500Z,9.30
2022-09-05T11:11:34.813Z,4.90
2022-09-05T11:18:57.496Z,6.40
2022-09-05T11:26:07.124Z,4.10
2022-09-05T11:39:45.991Z,8.80
2022-09-05T11:41:19.213Z,5.90
2022-09-05T11:48:53.519Z,6.50
2022-09-05T11:56:03.463Z,8.60
2022-09-05T12:04:08.067Z,5.90
2022-09-05T12:11:45.370Z,7.60
2022-09-05T12:19:14.219Z,6.80
2022-09-05T12:27:39.239Z,10.80
2022-09-05T12:36:12.498Z,5.40
2022-09-05T12:42:40.122Z,7.00
2022-09-05T12:50:15.134Z,6.20
2022-09-05T13:01:08.146Z,6.80
2022-09-05T13:05:22.618Z,14.60
2022-09-05T13:14:52.428Z,5.40
2022-09-05T13:20:03.582Z,8.10
2022-09-05T13:27:27.389Z,6.90
2022-09-05T13:38:10.926Z,7.50
2022-09-05T13:42:24.728Z,4.30
2022-09-05T13:49:58.841Z,6.50
2022-09-05T13:57:32.468Z,5.20
2022-09-05T14:05:07.127Z,6.00
2022-09-05T14:12:28.070Z,6.20
2022-09-05T14:19:40.730Z,9.30
2022-09-05T14:26:56.969Z,5.50
2022-09-05T14:37:51.403Z,4.60
2022-09-05T14:41:40.025Z,13.40
2022-09-05T14:49:05.544Z,5.90
2022-09-05T14:58:34.641Z,9.90
2022-09-05T15:12:22.078Z,12.10
2022-09-05T15:18:26.729Z,6.30
2022-09-05T15:25:40.310Z,6.80
2022-09-05T15:32:51.352Z,12.40
2022-09-05T15:39:20.792Z,8.40
2022-09-05T15:46:30.903Z,6.60
2022-09-05T15:53:37.294Z,6.40
2022-09-05T16:00:42.566Z,7.00
2022-09-05T16:10:40.244Z,8.10
2022-09-05T16:15:58.527Z,3.80
2022-09-05T16:23:25.662Z,4.60
2022-09-05T16:29:26.655Z,6.20
2022-09-05T16:36:32.548Z,8.10
2022-09-05T16:43:56.148Z,9.60
2022-09-05T16:51:15.783Z,11.80
2022-09-05T16:58:22.277Z,6.50
2022-09-05T17:06:05.439Z,12.10
2022-09-05T17:13:10.854Z,13.40
2022-09-05T17:20:14.753Z,13.90
2022-09-05T17:29:34.490Z,19.90
2022-09-05T17:33:49.620Z,15.20
2022-09-05T17:41:04.351Z,13.80
2022-09-05T17:48:16.163Z,15.80
2022-09-05T17:55:20.375Z,13.80
2022-09-05T18:02:23.346Z,14.30
2022-09-05T18:09:18.348Z,13.80
2022-09-05T18:16:28.391Z,15.50
2022-09-05T18:23:41.082Z,22.10
2022-09-05T18:30:36.369Z,18.40
2022-09-05T18:37:46.650Z,19.90
2022-09-05T18:45:15.418Z,19.00
2022-09-05T18:52:23.348Z,21.90
2022-09-05T18:59:24.703Z,17.60
2022-09-05T19:06:35.660Z,17.20
2022-09-05T19:13:43.265Z,18.00
2022-09-05T19:20:50.460Z,23.00
2022-09-05T19:47:28.334Z,10.10
2022-09-05T19:49:20.911Z,11.20
2022-09-05T19:56:23.909Z,11.00
2022-09-05T20:03:39.196Z,13.20
2022-09-05T20:10:42.955Z,11.40
2022-09-05T20:17:43.179Z,13.60
2022-09-05T20:24:34.268Z,17.50
2022-09-05T20:31:43.504Z,12.40
2022-09-05T20:43:20.489Z,15.90
2022-09-05T20:50:38.703Z,12.20
2022-09-05T20:54:17.179Z,11.50
2022-09-05T21:01:21.257Z,11.30
2022-09-05T21:08:25.109Z,13.20
2022-09-05T21:15:52.138Z,14.00
2022-09-05T21:22:49.419Z,13.70
2022-09-05T21:30:07.784Z,12.40
2022-09-05T21:37:07.206Z,11.70
2022-09-05T21:44:10.633Z,10.40
2022-09-05T21:51:26.139Z,16.30
2022-09-05T21:59:26.347Z,9.80
2022-09-05T22:05:52.095Z,14.00
2022-09-05T22:12:41.406Z,17.90
2022-09-05T22:19:38.201Z,11.00
2022-09-05T22:26:33.567Z,13.20
2022-09-05T22:33:36.606Z,11.30
2022-09-05T22:40:39.710Z,8.10
2022-09-05T22:47:42.267Z,8.20
2022-09-05T22:54:20.281Z,10.90
2022-09-05T23:01:22.105Z,7.30
2022-09-05T23:08:17.162Z,7.20
2022-09-05T23:15:01.499Z,5.90
2022-09-05T23:21:46.678Z,5.30
2022-09-05T23:28:46.972Z,7.90
2022-09-05T23:35:41.054Z,6.20
2022-09-05T23:42:44.049Z,7.30
2022-09-05T23:49:46.753Z,5.20
2022-09-05T23:56:49.452Z,5.00
